Tuesday, February 09, 2016
10:02 UTC
  |  Log In   |  Register Free
Airport Search:

Powell Municipal Airport
(KPOY)

Powell Municipal Airport Diagram
No Airport Diagram Available

FAA data valid effective Dec 10 2015 - Feb 4 2016 (unless otherwise noted).

 
 
 
 
 
 
 
 
 
 
 
 
 
 
Current Aviation Weather for KPOY

Weather Summary


The most recent METAR observation for POY was updated at: 12:55 UTC
METAR for KPOY is not available. Closest METAR is for KU68
KPOY  (most recent observation was updatred at 90:93 UTC)
090935Z AUTO 12007KT 10SM CLR 00/M07 A3034 RMK AO2

KU68  (15.0 nm SW)   (most recent observation was updated at 90:94 UTC)
090940Z AUTO 33003KT 10SM CLR M03/M07 A3038 RMK AO2

KCOD  (23.1 nm NE)   (most recent observation was updated at 90:93 UTC)
090935Z AUTO 00000KT 10SM CLR M03/M08 A3034 RMK AO1

TAF for KPOY is not available.
KCOD  (23.1 nm NE)   (most recent observation was updatred at 90:52 UTC)
090526Z 0906/1006 VRB05KT P6SM SCT250 FM091800 05007KT P6SM SCT250 FM100100 20006KT P6SM SCT250 AMD LTD TO CLD VIS AND WIND


GlobalAir.com is loading additional information.
 Current Weather at POY
32.0 F° (0.0 C°)

East winds at 10.4 mph
Pressure:
30.34 in
Humidity:
60%
Wind:
East at 10.4 mph
Dew Point:
19.4 F° (-7.0 C°)
Visibility:
10.00 mi
POY NOAA Radar




Find All Airport Services Find A Hotel Find A Rental Car Find A Golf Course Find A Restaurant $100 Hamburger



Airport Weather Forecast for KPOY

Translated METAR for KPOY (0935 UTC)
METAR:
KPOY 090935Z AUTO 12007KT 10SM CLR 00/M07 A3034 RMK AO2
Conditions at:
KPOY (Powell Muni, WY) observed 0935 UTC 09 February 2016
Temperature:
0°C (32°F)
Dewpoint:
-7°C (19.4°F) [RH = 59.3]
Pressure:
30.34 inches Hg (1027.4 mb)
Winds:
from the ESE (120 degrees) at 8.1 mph (7 knots: 3.6 m/s)
Visibility:
10 mile(s)
Ceiling:
at least 12,000 feet AGL
Clouds:
Clear below 12,000 feet AGL
Remarks:
site is un-manned
site is automated and HAS a precipitation sensor

Translated TAF for KCOD (Yellowstone Rgnl, WY) (0526 UTC)
TAF text:
KCOD 090526Z 0906/1006 VRB05KT P6SM SCT250
Forecast period:
Tuesday Feb 09 2016 06:00 UTC - Wednesday Feb 10 2016 06:00 UTC
Forecast type:
FROM: standard forecast or significant change
Winds:
variable wind direction at 5.8 mph (5 knots: 2.6 m/s)
Visibility:
6 or more mile(s) (9.7+ km)
Ceiling:
at least 12,000 feet AGL
Clouds:
Scattered Clouds at 25,000 feet AGL
Weather:
no significant weather observed at this time
TAF text:
FM091800 05007KT P6SM SCT250
Forecast period:
Tuesday Feb 09 2016 18:00 UTC - Wednesday Feb 10 2016 01:00 UTC
Forecast type:
FROM: standard forecast or significant change
Winds:
from the NE (050 degrees) at 8.1 mph (7 knots: 3.6 m/s)
Visibility:
6 or more mile(s) (9.7+ km)
Ceiling:
at least 12,000 feet AGL
Clouds:
Scattered Clouds at 25,000 feet AGL
Weather:
no significant weather observed at this time
TAF text:
FM100100 20006KT P6SM SCT250 LTD TO CLD VIS AND WIND
Forecast period:
Wednesday Feb 10 2016 01:00 UTC - Wednesday Feb 10 2016 06:00 UTC
Forecast type:
FROM: standard forecast or significant change
Winds:
from the SSW (200 degrees) at 6.9 mph (6 knots: 3.1 m/s)
Visibility:
6 or more mile(s) (9.7+ km)
Ceiling:
at least 12,000 feet AGL
Clouds:
Scattered Clouds at 25,000 feet AGL
Weather:
no significant weather observed at this time
FBO's on the Field
FBO Company Facility Photos Services Transportation Aviation Fuel Prices: Prices include tax
Catering Weather Repair Courtesy Rental Type 100LL JetA JetA+ MOGAS 8087
 
City of Powell

This FBO has not yet been rated
FS:Independent
Last Updated: Jan-20
Login to update fuel prices
SS:
Contact City of PowellMore FBO Information
 
Add another FBO Facility Photos Catering Weather Repair Courtesy Rental Type 100LL JetA JetA+ MOGAS 8087
Services Transportation Aviation Fuel Prices: Prices include tax


model-print
model-print
model-print
model-print